Time;durP1;ratioP1;P1;durP2;ratioP2;P2;SDS_P1;SDS_P2;PMS_P1;PMS_P2;Temp;Humidity;BMP_temperature;BMP_pressure;BME280_temperature;BME280_humidity;BME280_pressure;Samples;Min_cycle;Max_cycle;Signal;HPM_P1;HPM_P2
2023/08/26 00:01:32;;;;;;;1999.90;999.90;;;15.50;99.90;;;;;;5085757;28;20070;-69
2023/08/26 00:03:58;;;;;;;1999.90;999.90;;;15.50;99.90;;;;;;5092706;28;20037;-69
2023/08/26 00:06:23;;;;;;;1999.90;999.90;;;15.50;99.90;;;;;;5077041;28;20051;-69
2023/08/26 00:08:52;;;;;;;1999.90;999.90;;;15.50;99.90;;;;;;5100630;28;20044;-69
2023/08/26 00:11:18;;;;;;;1999.90;999.90;;;15.50;99.90;;;;;;5088883;28;20028;-69
2023/08/26 00:13:43;;;;;;;1999.90;999.90;;;15.50;99.90;;;;;;5085063;28;20535;-69
2023/08/26 00:16:09;;;;;;;1999.90;999.90;;;15.40;99.90;;;;;;5069077;28;20044;-69
2023/08/26 00:18:34;;;;;;;1999.90;999.90;;;15.40;99.90;;;;;;5088187;28;20040;-69
2023/08/26 00:21:00;;;;;;;1999.90;999.90;;;15.40;99.90;;;;;;5095740;28;20032;-69
2023/08/26 00:23:26;;;;;;;1999.90;999.90;;;15.40;99.90;;;;;;5086495;28;20141;-69
2023/08/26 00:25:52;;;;;;;1999.90;999.90;;;15.30;99.90;;;;;;5086931;28;20130;-69
2023/08/26 00:28:17;;;;;;;1999.90;999.90;;;15.30;99.90;;;;;;5102041;28;20621;-69
2023/08/26 00:30:44;;;;;;;1999.90;999.90;;;15.20;99.90;;;;;;5102216;28;20036;-69
2023/08/26 00:33:09;;;;;;;1999.90;999.90;;;15.20;99.90;;;;;;5096523;28;20052;-69
2023/08/26 00:35:37;;;;;;;1999.90;999.90;;;15.10;99.90;;;;;;5071655;28;20036;-69
2023/08/26 00:38:03;;;;;;;1999.90;999.90;;;15.10;99.90;;;;;;5082260;28;20125;-69
2023/08/26 00:40:35;;;;;;;1999.90;999.90;;;15.10;99.90;;;;;;5093037;28;20040;-69
2023/08/26 00:43:07;;;;;;;1999.90;999.90;;;15.00;99.90;;;;;;5089386;28;20577;-70
2023/08/26 00:45:33;;;;;;;1999.90;999.90;;;15.00;99.90;;;;;;5087507;28;20071;-69
2023/08/26 00:47:58;;;;;;;1999.90;999.90;;;14.90;99.90;;;;;;5083010;28;20071;-69
2023/08/26 00:50:24;;;;;;;1999.90;999.90;;;14.90;99.90;;;;;;5102629;28;20043;-69
2023/08/26 00:52:52;;;;;;;1999.90;999.90;;;14.90;99.90;;;;;;5089284;28;21131;-69
2023/08/26 00:55:19;;;;;;;1999.90;999.90;;;14.80;99.90;;;;;;5086371;28;20040;-69
2023/08/26 00:57:45;;;;;;;1999.90;999.90;;;14.80;99.90;;;;;;5076127;28;20044;-69
2023/08/26 01:00:11;;;;;;;1999.90;999.90;;;14.70;99.90;;;;;;5088147;28;20867;-69
2023/08/26 01:02:37;;;;;;;1999.90;999.90;;;14.70;99.90;;;;;;5070991;28;20036;-69
2023/08/26 01:05:05;;;;;;;1999.90;999.90;;;14.60;99.90;;;;;;5083064;28;20063;-69
2023/08/26 01:07:31;;;;;;;1999.90;999.90;;;14.60;99.90;;;;;;5070414;28;20048;-69
2023/08/26 01:09:57;;;;;;;1999.90;999.90;;;14.60;99.90;;;;;;5085927;28;20040;-69
2023/08/26 01:12:36;;;;;;;1999.90;999.90;;;14.50;99.90;;;;;;5070513;28;20050;-69
2023/08/26 01:15:11;;;;;;;1999.90;999.90;;;14.40;99.90;;;;;;5075968;28;20052;-69
2023/08/26 01:17:38;;;;;;;1999.90;999.90;;;14.40;99.90;;;;;;5097496;28;20849;-69
2023/08/26 01:20:07;;;;;;;1999.90;999.90;;;14.30;99.90;;;;;;5087261;28;20060;-69
2023/08/26 01:22:35;;;;;;;1999.90;999.90;;;14.30;99.90;;;;;;5070355;28;20044;-69
2023/08/26 01:25:01;;;;;;;1999.90;999.90;;;14.30;99.90;;;;;;5087694;28;20047;-70
2023/08/26 01:27:26;;;;;;;1999.90;999.90;;;14.20;99.90;;;;;;5086897;28;20038;-70
2023/08/26 01:29:52;;;;;;;1999.90;999.90;;;14.20;99.90;;;;;;5094367;28;20036;-69
2023/08/26 01:32:42;;;;;;;1999.90;999.90;;;14.20;99.90;;;;;;5082930;28;20039;-69
2023/08/26 01:35:17;;;;;;;1999.90;999.90;;;14.10;99.90;;;;;;5101387;28;20059;-69
2023/08/26 01:37:46;;;;;;;1999.90;999.90;;;14.10;99.90;;;;;;5086705;28;20035;-70
2023/08/26 01:40:13;;;;;;;1999.90;999.90;;;14.00;99.90;;;;;;5073859;28;20044;-69
2023/08/26 01:42:41;;;;;;;1999.90;999.90;;;14.00;99.90;;;;;;5102953;28;20495;-69
2023/08/26 01:45:07;;;;;;;1999.90;999.90;;;13.90;99.90;;;;;;5083364;28;20053;-69
2023/08/26 01:47:32;;;;;;;1999.90;999.90;;;13.90;99.90;;;;;;5067690;28;20040;-69
2023/08/26 01:49:58;;;;;;;1999.90;999.90;;;13.90;99.90;;;;;;5068628;28;20035;-69
2023/08/26 01:52:24;;;;;;;1999.90;999.90;;;13.80;99.90;;;;;;5081048;28;20415;-69
2023/08/26 01:54:49;;;;;;;1999.90;999.90;;;13.80;99.90;;;;;;5085210;28;20079;-69
2023/08/26 01:57:16;;;;;;;1999.90;999.90;;;13.70;99.90;;;;;;5103611;28;20571;-70
2023/08/26 01:59:42;;;;;;;1999.90;999.90;;;13.70;99.90;;;;;;5087509;28;20054;-70
2023/08/26 02:02:08;;;;;;;1999.90;999.90;;;13.70;99.90;;;;;;5080750;28;20779;-69
2023/08/26 02:04:33;;;;;;;1999.90;999.90;;;13.60;99.90;;;;;;5066638;28;20052;-69
2023/08/26 02:06:59;;;;;;;1999.90;999.90;;;13.60;99.90;;;;;;5095152;28;20507;-70
2023/08/26 02:09:24;;;;;;;1999.90;999.90;;;13.50;99.90;;;;;;5099868;28;20115;-70
2023/08/26 02:11:50;;;;;;;1999.90;999.90;;;13.40;99.90;;;;;;5069619;28;20072;-69
2023/08/26 02:14:16;;;;;;;1999.90;999.90;;;13.40;99.90;;;;;;5068970;28;20052;-70
2023/08/26 02:16:41;;;;;;;1999.90;999.90;;;13.30;99.90;;;;;;5086016;28;20047;-69
2023/08/26 02:19:07;;;;;;;1999.90;999.90;;;13.30;99.90;;;;;;5096808;28;20044;-69
2023/08/26 02:21:32;;;;;;;1999.90;999.90;;;13.30;99.90;;;;;;5086237;28;20078;-69
2023/08/26 02:23:58;;;;;;;1999.90;999.90;;;13.20;99.90;;;;;;5084429;28;20047;-69
2023/08/26 02:26:24;;;;;;;1999.90;999.90;;;13.20;99.90;;;;;;5086414;28;20036;-70
2023/08/26 02:28:49;;;;;;;1999.90;999.90;;;13.10;99.90;;;;;;5080673;28;20111;-69
2023/08/26 02:31:15;;;;;;;1999.90;999.90;;;13.10;99.90;;;;;;5069523;28;20047;-69
2023/08/26 02:33:40;;;;;;;1999.90;999.90;;;13.10;99.90;;;;;;5102049;28;20052;-69
2023/08/26 02:36:06;;;;;;;1999.90;999.90;;;13.00;99.90;;;;;;5086746;28;20810;-70
2023/08/26 02:38:32;;;;;;;1999.90;999.90;;;13.00;99.90;;;;;;5072172;28;20059;-69
2023/08/26 02:40:57;;;;;;;1999.90;999.90;;;13.00;99.90;;;;;;5068345;28;20051;-69
2023/08/26 02:43:23;;;;;;;1999.90;999.90;;;13.00;99.90;;;;;;5086182;28;20094;-69
2023/08/26 02:45:56;;;;;;;1999.90;999.90;;;12.90;99.90;;;;;;5090309;28;20101;-69
2023/08/26 02:48:22;;;;;;;1999.90;999.90;;;12.90;99.90;;;;;;5076105;28;20039;-69
2023/08/26 02:50:56;;;;;;;1999.90;999.90;;;12.90;99.90;;;;;;5083512;28;20138;-69
2023/08/26 02:53:24;;;;;;;1999.90;999.90;;;12.90;99.90;;;;;;5090363;28;20051;-69
2023/08/26 02:55:49;;;;;;;1999.90;999.90;;;12.80;99.90;;;;;;5088314;28;20562;-69
2023/08/26 02:58:15;;;;;;;1999.90;999.90;;;12.80;99.90;;;;;;5085654;28;20111;-69
2023/08/26 03:00:41;;;;;;;1999.90;999.90;;;12.80;99.90;;;;;;5091278;28;20491;-69
2023/08/26 03:03:06;;;;;;;1999.90;999.90;;;12.80;99.90;;;;;;5088103;28;20044;-70
2023/08/26 03:05:33;;;;;;;1999.90;999.90;;;12.70;99.90;;;;;;5085039;28;20522;-69
2023/08/26 03:07:59;;;;;;;1999.90;999.90;;;12.60;99.90;;;;;;5089547;28;20045;-69
2023/08/26 03:10:25;;;;;;;1999.90;999.90;;;12.60;99.90;;;;;;5107621;28;20032;-70
2023/08/26 03:12:50;;;;;;;1999.90;999.90;;;12.60;99.90;;;;;;5085358;28;20048;-69
2023/08/26 03:15:16;;;;;;;1999.90;999.90;;;12.50;99.90;;;;;;5080691;28;20048;-69
2023/08/26 03:17:42;;;;;;;1999.90;999.90;;;12.50;99.90;;;;;;5090826;28;20507;-70
2023/08/26 03:20:08;;;;;;;1999.90;999.90;;;12.50;99.90;;;;;;5106480;28;20040;-69
2023/08/26 03:22:34;;;;;;;1999.90;999.90;;;12.50;99.90;;;;;;5090230;28;20044;-70
2023/08/26 03:25:00;;;;;;;1999.90;999.90;;;12.40;99.90;;;;;;5090036;28;20093;-70
2023/08/26 03:27:25;;;;;;;1999.90;999.90;;;12.40;99.90;;;;;;5089607;28;20802;-70
2023/08/26 03:29:51;;;;;;;1999.90;999.90;;;12.40;99.90;;;;;;5082201;28;20036;-69
2023/08/26 03:32:16;;;;;;;1999.90;999.90;;;12.40;99.90;;;;;;5075524;28;20040;-70
2023/08/26 03:34:42;;;;;;;1999.90;999.90;;;12.40;99.90;;;;;;5089006;28;20044;-70
2023/08/26 03:37:08;;;;;;;1999.90;999.90;;;12.40;99.90;;;;;;5085082;28;20028;-69
2023/08/26 03:39:34;;;;;;;1999.90;999.90;;;12.40;99.90;;;;;;5091868;28;20032;-70
2023/08/26 03:42:00;;;;;;;1999.90;999.90;;;12.50;99.90;;;;;;5087548;28;20085;-70
2023/08/26 03:44:25;;;;;;;1999.90;999.90;;;12.50;99.90;;;;;;5089223;28;20100;-70
2023/08/26 03:46:51;;;;;;;1999.90;999.90;;;12.50;99.90;;;;;;5088146;28;20040;-70
2023/08/26 03:49:16;;;;;;;1999.90;999.90;;;12.50;99.90;;;;;;5071245;28;20115;-70
2023/08/26 03:51:42;;;;;;;1999.90;999.90;;;12.60;99.90;;;;;;5072321;28;20064;-70
2023/08/26 03:54:09;;;;;;;1999.90;999.90;;;12.60;99.90;;;;;;5085432;28;20050;-70
2023/08/26 03:56:35;;;;;;;1999.90;999.90;;;12.60;99.90;;;;;;5102023;27;20040;-70
2023/08/26 03:59:00;;;;;;;1999.90;999.90;;;12.70;99.90;;;;;;5092721;28;20043;-69
2023/08/26 04:01:27;;;;;;;1999.90;999.90;;;12.70;99.90;;;;;;5072813;28;20086;-70
2023/08/26 04:03:53;;;;;;;1999.90;999.90;;;12.70;99.90;;;;;;5088598;28;20044;-70
2023/08/26 04:06:19;;;;;;;1999.90;999.90;;;12.70;99.90;;;;;;5087609;28;20082;-70
2023/08/26 04:08:45;;;;;;;1999.90;999.90;;;12.70;99.90;;;;;;5086049;28;20051;-69
2023/08/26 04:11:11;;;;;;;1999.90;999.90;;;12.70;99.90;;;;;;5088825;28;20060;-70
2023/08/26 04:13:37;;;;;;;1999.90;999.90;;;12.60;99.90;;;;;;5088426;28;20067;-70
2023/08/26 04:16:03;;;;;;;1999.90;999.90;;;12.70;99.90;;;;;;5090470;28;20089;-70
2023/08/26 04:18:30;;;;;;;1999.90;999.90;;;12.70;99.90;;;;;;5088496;28;20433;-70
2023/08/26 04:20:56;;;;;;;1999.90;999.90;;;12.70;99.90;;;;;;5068121;28;20096;-70
2023/08/26 04:23:22;;;;;;;1999.90;999.90;;;12.80;99.90;;;;;;5088432;28;20423;-70
2023/08/26 04:25:48;;;;;;;1999.90;999.90;;;12.80;99.90;;;;;;5083370;28;20036;-70
2023/08/26 04:28:16;;;;;;;1999.90;999.90;;;12.80;99.90;;;;;;5089965;28;20084;-69
2023/08/26 04:30:42;;;;;;;1999.90;999.90;;;12.80;99.90;;;;;;5083043;28;20533;-70
2023/08/26 04:33:08;;;;;;;1999.90;999.90;;;12.90;99.90;;;;;;5088314;28;20044;-70
2023/08/26 04:35:34;;;;;;;1999.90;999.90;;;12.90;99.90;;;;;;5089083;28;20123;-70
2023/08/26 04:38:03;;;;;;;1999.90;999.90;;;12.90;99.90;;;;;;5084070;28;20054;-70
2023/08/26 04:40:29;;;;;;;1999.90;999.90;;;13.00;99.90;;;;;;5087917;28;20047;-70
2023/08/26 04:42:58;;;;;;;1999.90;999.90;;;13.00;99.90;;;;;;5087797;28;20411;-70
2023/08/26 04:45:24;;;;;;;1999.90;999.90;;;13.00;99.90;;;;;;5079813;28;20040;-70
2023/08/26 04:47:49;;;;;;;1999.90;999.90;;;13.00;99.90;;;;;;5070430;28;20175;-70
2023/08/26 04:50:15;;;;;;;1999.90;999.90;;;13.10;99.90;;;;;;5087163;28;20507;-70
2023/08/26 04:52:42;;;;;;;1999.90;999.90;;;13.10;99.90;;;;;;5087480;28;20043;-70
2023/08/26 04:55:08;;;;;;;1999.90;999.90;;;13.10;99.90;;;;;;5087966;28;20048;-70
2023/08/26 04:57:34;;;;;;;1999.90;999.90;;;13.20;99.90;;;;;;5079177;28;20039;-70
2023/08/26 05:00:00;;;;;;;1999.90;999.90;;;13.20;99.90;;;;;;5070888;28;20048;-70
2023/08/26 05:02:25;;;;;;;1999.90;999.90;;;13.30;99.90;;;;;;5084483;28;20035;-70
2023/08/26 05:04:53;;;;;;;1999.90;999.90;;;13.30;99.90;;;;;;5076697;28;20096;-70
2023/08/26 05:07:20;;;;;;;1999.90;999.90;;;13.30;99.90;;;;;;5088441;28;20450;-70
2023/08/26 05:09:45;;;;;;;1999.90;999.90;;;13.40;99.90;;;;;;5087072;28;20040;-70
2023/08/26 05:12:11;;;;;;;1999.90;999.90;;;13.40;99.90;;;;;;5086825;28;20119;-70
2023/08/26 05:14:37;;;;;;;1999.90;999.90;;;13.50;99.90;;;;;;5079411;28;20035;-70
2023/08/26 05:17:02;;;;;;;1999.90;999.90;;;13.50;99.90;;;;;;5086254;28;20047;-70
2023/08/26 05:19:28;;;;;;;1999.90;999.90;;;13.50;99.90;;;;;;5081899;28;20032;-70
2023/08/26 05:21:54;;;;;;;1999.90;999.90;;;13.60;99.90;;;;;;5094882;28;20171;-70
2023/08/26 05:24:19;;;;;;;1999.90;999.90;;;13.60;99.90;;;;;;5087334;28;20420;-70
2023/08/26 05:26:45;;;;;;;1999.90;999.90;;;13.60;99.90;;;;;;5100428;28;20166;-70
2023/08/26 05:29:10;;;;;;;1999.90;999.90;;;13.70;99.90;;;;;;5087690;28;20488;-70
2023/08/26 05:31:36;;;;;;;1999.90;999.90;;;13.70;99.90;;;;;;5079576;28;20826;-70
2023/08/26 05:34:01;;;;;;;1999.90;999.90;;;13.80;99.90;;;;;;5085457;28;20058;-70
2023/08/26 05:36:27;;;;;;;1999.90;999.90;;;13.80;99.90;;;;;;5098055;28;20520;-70
2023/08/26 05:38:53;;;;;;;1999.90;999.90;;;13.90;99.90;;;;;;5085238;28;20036;-70
2023/08/26 05:41:18;;;;;;;1999.90;999.90;;;13.90;99.90;;;;;;5091357;28;20035;-70
2023/08/26 05:43:44;;;;;;;1999.90;999.90;;;14.00;99.90;;;;;;5094129;28;20614;-70
2023/08/26 05:46:10;;;;;;;1999.90;999.90;;;14.00;99.90;;;;;;5069751;28;20043;-70
2023/08/26 05:48:35;;;;;;;1999.90;999.90;;;14.10;99.90;;;;;;5100779;28;20040;-70
2023/08/26 05:51:01;;;;;;;1999.90;999.90;;;14.10;99.90;;;;;;5083022;28;20031;-69
2023/08/26 05:53:28;;;;;;;1999.90;999.90;;;14.20;99.90;;;;;;5070411;28;20583;-70
2023/08/26 05:55:54;;;;;;;1999.90;999.90;;;14.20;99.90;;;;;;5084722;28;20047;-70
2023/08/26 05:58:20;;;;;;;1999.90;999.90;;;14.20;99.90;;;;;;5070778;28;20066;-70
2023/08/26 06:00:46;;;;;;;1999.90;999.90;;;14.20;99.90;;;;;;5097281;28;20036;-70
2023/08/26 06:03:12;;;;;;;1999.90;999.90;;;14.20;99.90;;;;;;5084962;28;20044;-69
2023/08/26 06:05:38;;;;;;;1999.90;999.90;;;14.20;99.90;;;;;;5093504;28;20071;-69
2023/08/26 06:08:03;;;;;;;1999.90;999.90;;;14.20;99.90;;;;;;5098116;28;20105;-69
2023/08/26 06:10:31;;;;;;;1999.90;999.90;;;14.20;99.90;;;;;;5087835;28;20750;-70
2023/08/26 06:12:57;;;;;;;1999.90;999.90;;;14.20;99.90;;;;;;5087743;28;20055;-69
2023/08/26 06:15:23;;;;;;;1999.90;999.90;;;14.20;99.90;;;;;;5086772;28;20040;-69
2023/08/26 06:17:48;;;;;;;1999.90;999.90;;;14.20;99.90;;;;;;5098326;28;20063;-69
2023/08/26 06:20:14;;;;;;;1999.90;999.90;;;14.20;99.90;;;;;;5069370;28;20120;-69
2023/08/26 06:22:41;;;;;;;1999.90;999.90;;;14.20;99.90;;;;;;5069675;28;20508;-69
2023/08/26 06:25:07;;;;;;;1999.90;999.90;;;14.20;99.90;;;;;;5083197;28;20047;-70
2023/08/26 06:27:33;;;;;;;1999.90;999.90;;;14.20;99.90;;;;;;5083634;28;20040;-69
2023/08/26 06:30:02;;;;;;;1999.90;999.90;;;14.10;99.90;;;;;;5088703;28;20036;-69
2023/08/26 06:32:28;;;;;;;1999.90;999.90;;;14.10;99.90;;;;;;5096703;28;20409;-69
2023/08/26 06:34:54;;;;;;;1999.90;999.90;;;14.20;99.90;;;;;;5068072;28;20044;-69
2023/08/26 06:37:19;;;;;;;1999.90;999.90;;;14.20;99.90;;;;;;5083561;28;20032;-69
2023/08/26 06:39:45;;;;;;;1999.90;999.90;;;14.20;99.90;;;;;;5087431;28;20561;-69
2023/08/26 06:42:11;;;;;;;1999.90;999.90;;;14.20;99.90;;;;;;5103652;28;20155;-69
2023/08/26 06:44:37;;;;;;;1999.90;999.90;;;14.20;99.90;;;;;;5066092;28;20808;-69
2023/08/26 06:47:02;;;;;;;1999.90;999.90;;;14.20;99.90;;;;;;5074307;28;20403;-69
2023/08/26 06:49:28;;;;;;;1999.90;999.90;;;14.20;99.90;;;;;;5086852;28;20024;-69
2023/08/26 06:51:54;;;;;;;1999.90;999.90;;;14.30;99.90;;;;;;5103586;28;20036;-69
2023/08/26 06:54:19;;;;;;;1999.90;999.90;;;14.30;99.90;;;;;;5084482;28;20051;-69
2023/08/26 06:56:45;;;;;;;1999.90;999.90;;;14.40;99.90;;;;;;5086647;28;20121;-69
2023/08/26 06:59:11;;;;;;;1999.90;999.90;;;14.40;99.90;;;;;;5084991;28;20055;-69
2023/08/26 07:01:37;;;;;;;1999.90;999.90;;;14.50;99.90;;;;;;5097252;28;20508;-69
2023/08/26 07:04:09;;;;;;;1999.90;999.90;;;14.50;99.90;;;;;;5092436;28;20084;-69
2023/08/26 07:06:36;;;;;;;1999.90;999.90;;;14.60;99.90;;;;;;5077658;28;20499;-69
2023/08/26 07:09:04;;;;;;;1999.90;999.90;;;14.70;99.90;;;;;;5079405;28;20041;-69
2023/08/26 07:11:30;;;;;;;1999.90;999.90;;;14.80;99.90;;;;;;5085063;28;20036;-69
2023/08/26 07:13:55;;;;;;;1999.90;999.90;;;15.00;99.90;;;;;;5086709;28;20058;-69
2023/08/26 07:16:21;;;;;;;1999.90;999.90;;;15.20;99.90;;;;;;5086250;28;20036;-69
2023/08/26 07:18:48;;;;;;;1999.90;999.90;;;15.40;99.90;;;;;;5080465;28;20913;-69
2023/08/26 07:21:15;;;;;;;1999.90;999.90;;;15.60;99.90;;;;;;5082847;28;20084;-69
2023/08/26 07:23:40;;;;;;;1999.90;999.90;;;15.80;99.90;;;;;;5086057;28;20048;-69
2023/08/26 07:26:06;;;;;;;1999.90;999.90;;;16.10;99.90;;;;;;5067897;28;20593;-69
2023/08/26 07:28:32;;;;;;;1999.90;999.90;;;16.20;99.90;;;;;;5085359;28;20040;-69
2023/08/26 07:31:02;;;;;;;1999.90;999.90;;;16.50;99.90;;;;;;5071936;28;20036;-69
2023/08/26 07:33:28;;;;;;;1999.90;999.90;;;16.70;99.90;;;;;;5089679;28;20040;-69
2023/08/26 07:36:06;;;;;;;1999.90;999.90;;;17.00;99.90;;;;;;5090338;28;20059;-69
2023/08/26 07:38:31;;;;;;;1999.90;999.90;;;17.20;99.90;;;;;;5080662;28;20044;-69
2023/08/26 07:40:57;;;;;;;1999.90;999.90;;;17.30;99.90;;;;;;5100546;28;20462;-69
2023/08/26 07:43:23;;;;;;;1999.90;999.90;;;17.20;99.90;;;;;;5080266;28;20123;-69
2023/08/26 07:45:49;;;;;;;1999.90;999.90;;;17.20;99.90;;;;;;5090772;28;20478;-69
2023/08/26 07:48:15;;;;;;;1999.90;999.90;;;17.20;99.90;;;;;;5091277;28;20044;-70
2023/08/26 07:50:41;;;;;;;1999.90;999.90;;;17.20;99.90;;;;;;5099526;28;20046;-70
2023/08/26 07:53:06;;;;;;;1999.90;999.90;;;17.10;99.90;;;;;;5089636;28;20044;-70
2023/08/26 07:55:32;;;;;;;1999.90;999.90;;;17.00;99.90;;;;;;5100689;28;20040;-70
2023/08/26 07:57:58;;;;;;;1999.90;999.90;;;16.90;99.90;;;;;;5084318;28;20051;-69
2023/08/26 08:00:24;;;;;;;1999.90;999.90;;;17.00;99.90;;;;;;5095806;28;20041;-69
2023/08/26 08:02:49;;;;;;;1999.90;999.90;;;17.10;99.90;;;;;;5093706;28;20056;-69
2023/08/26 08:05:15;;;;;;;1999.90;999.90;;;17.20;99.90;;;;;;5073839;28;20062;-69
2023/08/26 08:07:41;;;;;;;1999.90;999.90;;;17.40;99.90;;;;;;5102187;28;20717;-70
2023/08/26 08:10:08;;;;;;;1999.90;999.90;;;17.50;99.90;;;;;;5090718;28;20047;-69
2023/08/26 08:12:35;;;;;;;1999.90;999.90;;;17.60;99.90;;;;;;5088762;28;20044;-69
2023/08/26 08:15:00;;;;;;;1999.90;999.90;;;17.50;99.90;;;;;;5065684;28;20789;-69
2023/08/26 08:17:26;;;;;;;1999.90;999.90;;;17.50;99.90;;;;;;5079713;28;20123;-69
2023/08/26 08:19:51;;;;;;;1999.90;999.90;;;17.40;99.90;;;;;;5086066;28;20036;-69
2023/08/26 08:22:17;;;;;;;1999.90;999.90;;;17.40;99.90;;;;;;5088888;28;20040;-70
2023/08/26 08:24:43;;;;;;;1999.90;999.90;;;17.50;99.90;;;;;;5071544;28;20048;-69
2023/08/26 08:27:09;;;;;;;1999.90;999.90;;;17.60;99.90;;;;;;5083919;28;20082;-69
2023/08/26 08:29:35;;;;;;;1999.90;999.90;;;17.70;99.90;;;;;;5092990;28;20469;-69
2023/08/26 08:32:01;;;;;;;1999.90;999.90;;;17.90;99.90;;;;;;5091570;28;20040;-69
2023/08/26 08:34:26;;;;;;;1999.90;999.90;;;18.00;99.90;;;;;;5095701;28;20047;-69
2023/08/26 08:36:52;;;;;;;1999.90;999.90;;;18.10;99.90;;;;;;5084411;28;20044;-69
2023/08/26 08:39:18;;;;;;;1999.90;999.90;;;18.10;99.90;;;;;;5104601;28;20044;-69
2023/08/26 08:41:48;;;;;;;1999.90;999.90;;;18.00;99.90;;;;;;5105173;28;20071;-69
2023/08/26 08:44:15;;;;;;;1999.90;999.90;;;17.90;99.90;;;;;;5073286;28;20072;-69
2023/08/26 08:46:41;;;;;;;1999.90;999.90;;;18.00;99.90;;;;;;5094342;28;20040;-70
2023/08/26 08:49:07;;;;;;;1999.90;999.90;;;18.20;99.90;;;;;;5071411;28;20046;-69
2023/08/26 08:51:36;;;;;;;1999.90;999.90;;;18.20;99.90;;;;;;5088555;28;20407;-69
2023/08/26 08:54:04;;;;;;;1999.90;999.90;;;18.40;99.90;;;;;;5083144;28;20051;-69
2023/08/26 08:56:32;;;;;;;1999.90;999.90;;;18.50;99.90;;;;;;5090177;28;20127;-69
2023/08/26 08:58:59;;;;;;;1999.90;999.90;;;18.90;99.90;;;;;;5070356;28;20039;-69
2023/08/26 09:01:25;;;;;;;1999.90;999.90;;;19.00;99.90;;;;;;5083217;28;20128;-69
2023/08/26 09:03:51;;;;;;;1999.90;999.90;;;19.00;99.90;;;;;;5087465;28;20103;-69
2023/08/26 09:06:19;;;;;;;1999.90;999.90;;;19.40;99.90;;;;;;5100427;28;20525;-69
2023/08/26 09:08:45;;;;;;;1999.90;999.90;;;20.10;99.90;;;;;;5085730;28;20036;-70
2023/08/26 09:11:12;;;;;;;1999.90;999.90;;;20.30;99.90;;;;;;5092204;28;20038;-69
2023/08/26 09:13:38;;;;;;;1999.90;999.90;;;20.10;99.90;;;;;;5069583;28;20050;-69
2023/08/26 09:16:05;;;;;;;1999.90;999.90;;;20.00;99.90;;;;;;5087527;28;20396;-70
2023/08/26 09:18:30;;;;;;;1999.90;999.90;;;20.30;99.90;;;;;;5087744;28;20047;-70
2023/08/26 09:20:56;;;;;;;365.58;346.83;;;20.60;99.90;;;;;;5085401;28;20040;-69
2023/08/26 09:23:21;;;;;;;1117.28;611.78;;;20.70;99.90;;;;;;5087616;28;20081;-69
2023/08/26 09:25:55;;;;;;;405.15;384.20;;;20.60;99.90;;;;;;5087176;28;20051;-70
2023/08/26 09:28:23;;;;;;;408.07;386.73;;;20.50;99.90;;;;;;5064844;28;20110;-69
2023/08/26 09:31:07;;;;;;;343.98;326.45;;;20.60;99.90;;;;;;5084531;28;20274;-69
2023/08/26 09:33:34;;;;;;;309.90;294.33;;;20.70;99.90;;;;;;5078658;28;20051;-69
2023/08/26 09:35:59;;;;;;;391.80;371.70;;;21.20;99.90;;;;;;5101505;28;20046;-69
2023/08/26 09:38:26;;;;;;;465.58;440.60;;;21.60;99.90;;;;;;5067292;28;20044;-70
2023/08/26 09:40:59;;;;;;;376.63;356.52;;;21.70;99.90;;;;;;5087653;28;20075;-70
2023/08/26 09:43:25;;;;;;;205.38;195.63;;;21.70;99.90;;;;;;5083549;28;20488;-69
2023/08/26 09:45:55;;;;;;;160.82;153.35;;;21.40;99.90;;;;;;5083046;28;20036;-69
2023/08/26 09:48:24;;;;;;;247.40;233.75;;;20.90;99.90;;;;;;5087297;28;20052;-69
2023/08/26 09:50:50;;;;;;;156.98;150.05;;;20.50;99.90;;;;;;5087007;28;20032;-69
2023/08/26 09:53:30;;;;;;;284.13;271.25;;;20.00;99.90;;;;;;5089710;28;20707;-69
2023/08/26 09:55:57;;;;;;;410.92;389.63;;;19.60;99.90;;;;;;5084329;28;20040;-69
2023/08/26 09:58:23;;;;;;;517.50;489.52;;;19.20;99.90;;;;;;5083597;28;20085;-69
2023/08/26 10:00:50;;;;;;;436.20;414.02;;;18.80;99.90;;;;;;5083305;28;20044;-69
2023/08/26 10:03:21;;;;;;;278.13;265.63;;;18.40;99.90;;;;;;5085916;28;20392;-69
2023/08/26 10:05:50;;;;;;;428.85;402.35;;;18.10;99.90;;;;;;5082648;28;20055;-70
2023/08/26 10:08:17;;;;;;;430.52;407.02;;;17.70;99.90;;;;;;5077504;28;20088;-70
2023/08/26 10:10:50;;;;;;;1999.90;999.90;;;17.30;99.90;;;;;;5080192;28;20042;-70
2023/08/26 10:13:20;;;;;;;1999.90;999.90;;;16.80;99.90;;;;;;5083736;28;20051;-69
2023/08/26 10:15:52;;;;;;;1999.90;999.90;;;16.30;99.90;;;;;;5064546;28;20044;-69
2023/08/26 10:18:41;;;;;;;1999.90;999.90;;;16.00;99.90;;;;;;5099207;28;20127;-69
2023/08/26 10:21:07;;;;;;;1999.90;999.90;;;15.70;99.90;;;;;;5080354;28;20048;-69
2023/08/26 10:23:33;;;;;;;1999.90;999.90;;;15.50;99.90;;;;;;5069588;28;20039;-69
2023/08/26 10:25:59;;;;;;;1999.90;999.90;;;15.30;99.90;;;;;;5086939;28;20048;-69
2023/08/26 10:28:26;;;;;;;1999.90;999.90;;;15.10;99.90;;;;;;5083507;28;20120;-69
2023/08/26 10:30:54;;;;;;;1999.90;999.90;;;15.10;99.90;;;;;;5078416;28;20035;-69
2023/08/26 10:33:20;;;;;;;1999.90;999.90;;;15.20;99.90;;;;;;5074643;28;20076;-69
2023/08/26 10:36:11;;;;;;;1999.90;999.90;;;15.20;99.90;;;;;;5079889;28;20039;-69
2023/08/26 10:38:39;;;;;;;1999.90;999.90;;;15.30;99.90;;;;;;5083548;28;20047;-69
2023/08/26 10:41:11;;;;;;;1999.90;999.90;;;15.40;99.90;;;;;;5084935;28;20052;-69
2023/08/26 10:43:49;;;;;;;1999.90;999.90;;;15.70;99.90;;;;;;5078448;28;20124;-69
2023/08/26 10:46:15;;;;;;;1999.90;999.90;;;16.00;99.90;;;;;;5078251;28;20048;-69
2023/08/26 10:48:56;;;;;;;1999.90;999.90;;;16.50;99.90;;;;;;5095093;28;20127;-69
2023/08/26 10:51:22;;;;;;;1999.90;999.90;;;16.80;99.90;;;;;;5090173;28;20036;-69
2023/08/26 10:53:51;;;;;;;1999.90;999.90;;;17.10;99.90;;;;;;5089265;28;20054;-70
2023/08/26 10:56:18;;;;;;;1999.90;999.90;;;17.50;99.90;;;;;;5082121;28;20048;-70
2023/08/26 10:58:48;;;;;;;1999.90;999.90;;;18.10;99.90;;;;;;5067899;28;20144;-69
2023/08/26 11:01:14;;;;;;;1999.90;999.90;;;18.50;99.90;;;;;;5080584;28;20044;-69
2023/08/26 11:03:40;;;;;;;1999.90;999.90;;;18.80;99.90;;;;;;5074730;28;20089;-69
2023/08/26 11:06:11;;;;;;;1999.90;999.90;;;19.00;99.90;;;;;;5085882;28;20056;-70
2023/08/26 11:08:38;;;;;;;1999.90;999.90;;;19.30;99.90;;;;;;5082831;28;20048;-70
2023/08/26 11:11:04;;;;;;;1999.90;999.90;;;19.50;99.90;;;;;;5068653;28;20080;-70
2023/08/26 11:13:30;;;;;;;1999.90;999.90;;;19.70;99.90;;;;;;5087297;28;20044;-70
2023/08/26 11:15:56;;;;;;;1999.90;999.90;;;19.90;99.90;;;;;;5066917;28;20505;-70
2023/08/26 11:18:22;;;;;;;1999.90;999.90;;;20.00;99.90;;;;;;5065690;28;20530;-70
2023/08/26 11:20:49;;;;;;;1999.90;999.90;;;20.30;99.90;;;;;;5094006;28;20047;-70
2023/08/26 11:23:15;;;;;;;1999.90;999.90;;;20.50;99.90;;;;;;5086845;28;20123;-70
2023/08/26 11:25:40;;;;;;;1999.90;999.90;;;20.60;99.90;;;;;;5095321;28;20097;-70
2023/08/26 11:28:10;;;;;;;1999.90;999.90;;;20.60;99.90;;;;;;5065327;28;20036;-70
2023/08/26 11:30:45;;;;;;;1999.90;999.90;;;20.70;99.90;;;;;;5082789;28;20040;-70
2023/08/26 11:33:16;;;;;;;1999.90;999.90;;;20.80;99.90;;;;;;5083790;28;20047;-70
2023/08/26 11:35:43;;;;;;;1999.90;999.90;;;20.60;99.90;;;;;;5073007;28;20075;-69
2023/08/26 11:38:09;;;;;;;1999.90;999.90;;;20.30;99.90;;;;;;5086331;28;20044;-70
2023/08/26 11:40:35;;;;;;;1999.90;999.90;;;19.90;99.90;;;;;;5089664;28;20036;-70
2023/08/26 11:43:08;;;;;;;1999.90;999.90;;;19.60;99.90;;;;;;5071967;28;20109;-69
2023/08/26 11:45:35;;;;;;;1220.25;709.00;;;19.30;99.90;;;;;;5082599;28;20043;-70
2023/08/26 11:48:01;;;;;;;1999.90;999.90;;;19.10;99.90;;;;;;5072930;28;20556;-70
2023/08/26 11:50:27;;;;;;;1999.90;999.90;;;18.80;99.90;;;;;;5084092;28;20032;-69
2023/08/26 11:52:54;;;;;;;1999.90;999.90;;;18.80;99.90;;;;;;5088932;28;20120;-70
2023/08/26 11:55:20;;;;;;;1999.90;999.90;;;19.10;99.90;;;;;;5089039;28;20044;-69
2023/08/26 11:57:51;;;;;;;1999.90;999.90;;;19.70;99.90;;;;;;5088962;28;20154;-70